createdAt,value
2023-04-20T00:00:02.765Z,5.85
2023-04-20T00:02:40.707Z,5.87
2023-04-20T00:05:09.160Z,5.89
2023-04-20T00:07:36.510Z,5.92
2023-04-20T00:10:03.798Z,5.93
2023-04-20T00:12:30.492Z,5.94
2023-04-20T00:14:57.242Z,5.94
2023-04-20T00:17:24.576Z,5.92
2023-04-20T00:19:51.392Z,5.93
2023-04-20T00:22:17.986Z,5.90
2023-04-20T00:24:45.200Z,5.90
2023-04-20T00:27:11.923Z,5.89
2023-04-20T00:29:38.406Z,5.90
2023-04-20T00:32:05.706Z,5.91
2023-04-20T00:34:32.290Z,5.94
2023-04-20T00:37:00.540Z,5.99
2023-04-20T00:39:27.119Z,6.02
2023-04-20T00:41:54.206Z,6.04
2023-04-20T00:44:20.816Z,6.09
2023-04-20T00:46:47.608Z,6.10
2023-04-20T00:49:14.236Z,6.13
2023-04-20T00:51:41.156Z,6.11
2023-04-20T00:54:07.998Z,6.12
2023-04-20T00:56:35.036Z,6.15
2023-04-20T00:59:02.288Z,6.18
2023-04-20T01:01:29.118Z,6.21
2023-04-20T01:03:55.773Z,6.20
2023-04-20T01:06:22.514Z,6.21
2023-04-20T01:08:52.432Z,6.24
2023-04-20T01:11:19.100Z,6.25
2023-04-20T01:13:46.099Z,6.29
2023-04-20T01:16:13.456Z,6.29
2023-04-20T01:18:47.427Z,6.32
2023-04-20T01:21:16.618Z,6.30
2023-04-20T01:23:43.495Z,6.31
2023-04-20T01:26:11.881Z,6.29
2023-04-20T01:28:38.421Z,6.30
2023-04-20T01:31:07.846Z,6.32
2023-04-20T01:33:37.677Z,6.34
2023-04-20T01:36:05.822Z,6.35
2023-04-20T01:38:34.747Z,6.36
2023-04-20T01:41:06.882Z,6.40
2023-04-20T01:43:34.768Z,6.43
2023-04-20T01:46:01.842Z,6.43
2023-04-20T01:48:28.657Z,6.44
2023-04-20T01:50:55.147Z,6.44
2023-04-20T01:53:22.042Z,6.44
2023-04-20T01:55:50.073Z,6.45
2023-04-20T01:58:16.732Z,6.46
2023-04-20T02:00:44.512Z,6.44
2023-04-20T02:03:12.000Z,6.46
2023-04-20T02:05:38.763Z,6.45
2023-04-20T02:08:05.717Z,6.47
2023-04-20T02:10:32.637Z,6.49
2023-04-20T02:12:59.088Z,6.49
2023-04-20T02:15:25.716Z,6.50
2023-04-20T02:17:52.815Z,6.52
2023-04-20T02:20:20.049Z,6.53
2023-04-20T02:22:47.064Z,6.55
2023-04-20T02:25:14.157Z,6.58
2023-04-20T02:27:40.663Z,6.60
2023-04-20T02:30:08.337Z,6.59
2023-04-20T02:32:35.472Z,6.61
2023-04-20T02:35:04.188Z,6.63
2023-04-20T02:37:31.878Z,6.64
2023-04-20T02:39:58.467Z,6.68
2023-04-20T02:42:26.993Z,6.69
2023-04-20T02:44:56.039Z,6.68
2023-04-20T02:47:22.775Z,6.68
2023-04-20T02:49:50.856Z,6.69
2023-04-20T02:52:17.850Z,6.68
2023-04-20T02:54:44.681Z,6.68
2023-04-20T02:57:12.609Z,6.69
2023-04-20T02:59:39.398Z,6.69
2023-04-20T03:02:19.984Z,6.70
2023-04-20T03:04:47.374Z,6.71
2023-04-20T03:07:19.856Z,6.71
2023-04-20T03:09:47.975Z,6.72
2023-04-20T03:12:37.091Z,6.74
2023-04-20T03:15:22.711Z,6.74
2023-04-20T03:17:58.460Z,6.73
2023-04-20T03:20:25.637Z,6.73
2023-04-20T03:22:52.475Z,6.73
2023-04-20T03:25:22.426Z,6.73
2023-04-20T03:27:55.373Z,6.72
2023-04-20T03:30:22.022Z,6.73
2023-04-20T03:32:54.245Z,6.71
2023-04-20T03:35:21.168Z,6.70
2023-04-20T03:37:47.859Z,6.69
2023-04-20T03:40:14.919Z,6.69
2023-04-20T03:42:41.594Z,6.69
2023-04-20T03:45:08.826Z,6.68
2023-04-20T03:47:35.633Z,6.68
2023-04-20T03:50:02.197Z,6.70
2023-04-20T03:52:28.718Z,6.74
2023-04-20T03:54:55.745Z,6.76
2023-04-20T03:57:22.159Z,6.78
2023-04-20T03:59:48.967Z,6.80
2023-04-20T04:02:19.177Z,6.82
2023-04-20T04:04:47.014Z,6.84
2023-04-20T04:07:13.686Z,6.84
2023-04-20T04:09:42.412Z,6.85
2023-04-20T04:12:09.834Z,6.85
2023-04-20T04:14:37.634Z,6.86
2023-04-20T04:17:04.794Z,6.85
2023-04-20T04:19:33.678Z,6.87
2023-04-20T04:22:00.679Z,6.89
2023-04-20T04:24:28.501Z,6.89
2023-04-20T04:27:15.715Z,6.91
2023-04-20T04:29:51.172Z,6.96
2023-04-20T04:32:19.505Z,6.98
2023-04-20T04:34:46.374Z,6.98
2023-04-20T04:37:14.521Z,6.98
2023-04-20T04:39:46.720Z,7.00
2023-04-20T04:42:19.368Z,7.00
2023-04-20T04:44:47.005Z,7.04
2023-04-20T04:47:21.828Z,7.07
2023-04-20T04:49:49.150Z,7.11
2023-04-20T04:52:15.693Z,7.17
2023-04-20T04:54:42.396Z,7.19
2023-04-20T04:57:09.037Z,7.22
2023-04-20T04:59:36.380Z,7.22
2023-04-20T05:02:03.506Z,7.22
2023-04-20T05:04:30.627Z,7.23
2023-04-20T05:06:57.316Z,7.24
2023-04-20T05:09:23.982Z,7.22
2023-04-20T05:11:50.819Z,7.19
2023-04-20T05:14:17.547Z,7.17
2023-04-20T05:16:44.176Z,7.19
2023-04-20T05:19:10.730Z,7.20
2023-04-20T05:21:39.322Z,7.22
2023-04-20T05:24:06.552Z,7.20
2023-04-20T05:26:33.640Z,7.21
2023-04-20T05:29:00.336Z,7.20
2023-04-20T05:31:26.949Z,7.25
2023-04-20T05:33:53.517Z,7.49
2023-04-20T05:36:20.709Z,7.61
2023-04-20T05:38:47.277Z,7.56
2023-04-20T05:41:14.039Z,7.63
2023-04-20T05:43:41.286Z,7.76
2023-04-20T05:46:07.941Z,7.73
2023-04-20T05:48:35.096Z,7.75
2023-04-20T05:51:01.609Z,7.78
2023-04-20T05:53:28.175Z,7.81
2023-04-20T05:55:54.761Z,7.78
2023-04-20T05:58:21.360Z,7.79
2023-04-20T06:00:47.859Z,7.80
2023-04-20T06:03:14.525Z,7.83
2023-04-20T06:05:41.627Z,7.83
2023-04-20T06:08:08.791Z,7.88
2023-04-20T06:10:35.463Z,7.94
2023-04-20T06:13:01.984Z,7.95
2023-04-20T06:15:28.504Z,7.94
2023-04-20T06:17:55.145Z,8.00
2023-04-20T06:20:22.245Z,8.09
2023-04-20T06:22:49.107Z,8.12
2023-04-20T06:25:16.013Z,8.17
2023-04-20T06:27:42.676Z,8.51
2023-04-20T06:30:10.371Z,8.90
2023-04-20T06:32:38.110Z,9.34
2023-04-20T06:35:06.294Z,9.61
2023-04-20T06:37:33.043Z,9.96
2023-04-20T06:39:59.595Z,10.19
2023-04-20T06:42:26.445Z,10.36
2023-04-20T06:44:52.970Z,10.47
2023-04-20T06:47:19.801Z,10.46
2023-04-20T06:49:46.700Z,10.28
2023-04-20T06:52:15.953Z,10.18
2023-04-20T06:54:42.774Z,10.11
2023-04-20T06:57:09.750Z,10.02
2023-04-20T06:59:36.260Z,9.85
2023-04-20T07:02:03.144Z,9.70
2023-04-20T07:04:29.753Z,9.60
2023-04-20T07:06:56.455Z,9.60
2023-04-20T07:09:23.342Z,9.55
2023-04-20T07:11:50.126Z,9.50
2023-04-20T07:14:16.747Z,9.55
2023-04-20T07:16:43.550Z,9.64
2023-04-20T07:19:10.475Z,9.70
2023-04-20T07:21:38.805Z,9.73
2023-04-20T07:24:06.045Z,9.74
2023-04-20T07:26:32.602Z,9.76
2023-04-20T07:28:59.996Z,9.76
2023-04-20T07:31:26.511Z,9.78
2023-04-20T07:33:53.060Z,9.90
2023-04-20T07:36:21.876Z,10.21
2023-04-20T07:38:49.779Z,10.18
2023-04-20T07:41:16.463Z,10.13
2023-04-20T07:43:44.300Z,10.27
2023-04-20T07:46:10.948Z,10.49
2023-04-20T07:48:37.741Z,10.58
2023-04-20T07:51:04.680Z,10.67
2023-04-20T07:53:31.284Z,10.76
2023-04-20T07:55:57.789Z,10.89
2023-04-20T07:58:24.299Z,10.96
2023-04-20T08:00:50.790Z,11.06
2023-04-20T08:03:17.656Z,11.18
2023-04-20T08:05:44.652Z,11.31
2023-04-20T08:08:11.290Z,11.40
2023-04-20T08:10:38.178Z,11.52
2023-04-20T08:13:04.999Z,11.52
2023-04-20T08:15:31.629Z,11.52
2023-04-20T08:17:58.468Z,11.49
2023-04-20T08:20:25.356Z,11.46
2023-04-20T08:22:53.152Z,11.41
2023-04-20T08:25:19.824Z,11.37
2023-04-20T08:27:46.509Z,11.37
2023-04-20T08:30:13.077Z,11.48
2023-04-20T08:32:40.980Z,11.63
2023-04-20T08:35:08.590Z,11.75
2023-04-20T08:37:35.692Z,11.88
2023-04-20T08:40:02.272Z,11.98
2023-04-20T08:42:29.055Z,12.05
2023-04-20T08:44:56.052Z,12.10
2023-04-20T08:47:22.810Z,12.00
2023-04-20T08:49:53.858Z,11.98
2023-04-20T08:52:20.407Z,11.93
2023-04-20T08:54:55.908Z,11.84
2023-04-20T08:57:23.810Z,11.88
2023-04-20T08:59:50.737Z,11.97
2023-04-20T09:02:17.385Z,12.16
2023-04-20T09:04:44.360Z,12.25
2023-04-20T09:07:19.846Z,12.31
2023-04-20T09:09:57.142Z,12.33
2023-04-20T09:12:24.701Z,12.30
2023-04-20T09:14:52.651Z,12.36
2023-04-20T09:17:36.499Z,12.47
2023-04-20T09:20:07.349Z,12.67
2023-04-20T09:22:36.237Z,12.75
2023-04-20T09:25:19.355Z,12.86
2023-04-20T09:28:00.408Z,13.12
2023-04-20T09:30:37.877Z,13.24
2023-04-20T09:33:08.376Z,13.30
2023-04-20T09:35:35.068Z,13.26
2023-04-20T09:38:01.679Z,13.25
2023-04-20T09:40:28.826Z,13.21
2023-04-20T09:42:58.710Z,13.21
2023-04-20T09:45:25.737Z,13.23
2023-04-20T09:47:52.836Z,13.21
2023-04-20T09:50:27.092Z,13.08
2023-04-20T09:53:02.850Z,13.02
2023-04-20T09:55:31.498Z,13.04
2023-04-20T09:58:01.717Z,12.92
2023-04-20T10:00:29.092Z,12.70
2023-04-20T10:02:57.159Z,12.56
2023-04-20T10:05:35.783Z,12.36
2023-04-20T10:08:03.385Z,12.20
2023-04-20T10:10:30.344Z,12.06
2023-04-20T10:13:01.488Z,12.10
2023-04-20T10:15:41.819Z,12.05
2023-04-20T10:18:17.708Z,12.03
2023-04-20T10:20:45.017Z,12.24
2023-04-20T10:23:14.271Z,12.38
2023-04-20T10:25:41.666Z,12.53
2023-04-20T10:28:10.583Z,12.61
2023-04-20T10:30:38.133Z,12.76
2023-04-20T10:33:12.781Z,12.94
2023-04-20T10:35:55.408Z,12.93
2023-04-20T10:38:32.668Z,12.93
2023-04-20T10:41:09.606Z,12.94
2023-04-20T10:43:40.272Z,13.05
2023-04-20T10:46:23.884Z,13.17
2023-04-20T10:48:53.312Z,13.08
2023-04-20T10:51:20.405Z,12.95
2023-04-20T10:53:46.984Z,12.88
2023-04-20T10:56:13.844Z,12.77
2023-04-20T10:58:41.430Z,12.68
2023-04-20T11:01:08.231Z,12.65
2023-04-20T11:03:35.518Z,12.55
2023-04-20T11:06:04.250Z,12.45
2023-04-20T11:08:39.594Z,12.47
2023-04-20T11:11:07.784Z,12.65
2023-04-20T11:13:35.252Z,12.70
2023-04-20T11:16:10.999Z,12.83
2023-04-20T11:18:48.128Z,12.88
2023-04-20T11:21:14.770Z,13.08
2023-04-20T11:23:42.323Z,13.38
2023-04-20T11:26:08.895Z,13.77
2023-04-20T11:28:35.782Z,14.15
2023-04-20T11:31:02.676Z,14.54
2023-04-20T11:33:31.667Z,14.84
2023-04-20T11:35:59.265Z,14.94
2023-04-20T11:38:31.505Z,14.97
2023-04-20T11:41:04.883Z,15.07
2023-04-20T11:43:32.595Z,15.17
2023-04-20T11:46:01.105Z,15.31
2023-04-20T11:48:31.591Z,15.35
2023-04-20T11:50:58.677Z,15.27
2023-04-20T11:53:25.680Z,15.25
2023-04-20T11:55:53.760Z,15.37
2023-04-20T11:58:20.348Z,15.52
2023-04-20T12:00:47.150Z,15.55
2023-04-20T12:03:13.821Z,15.56
2023-04-20T12:05:40.839Z,15.58
2023-04-20T12:08:08.526Z,15.60
2023-04-20T12:10:35.407Z,15.68
2023-04-20T12:13:02.056Z,15.76
2023-04-20T12:15:29.083Z,15.66
2023-04-20T12:17:55.879Z,15.61
2023-04-20T12:20:22.611Z,15.52
2023-04-20T12:22:49.216Z,15.41
2023-04-20T12:25:16.043Z,15.27
2023-04-20T12:27:42.523Z,15.07
2023-04-20T12:30:09.497Z,14.85
2023-04-20T12:32:36.189Z,14.76
2023-04-20T12:35:03.079Z,14.67
2023-04-20T12:37:29.758Z,14.47
2023-04-20T12:39:57.664Z,14.27
2023-04-20T12:42:24.150Z,14.14
2023-04-20T12:44:54.426Z,13.96
2023-04-20T12:47:21.160Z,13.81
2023-04-20T12:49:48.222Z,13.67
2023-04-20T12:52:15.062Z,13.51
2023-04-20T12:54:44.008Z,13.40
2023-04-20T12:57:11.273Z,13.35
2023-04-20T12:59:37.781Z,13.30
2023-04-20T13:02:04.464Z,13.23
2023-04-20T13:04:31.281Z,13.15
2023-04-20T13:06:57.985Z,13.08
2023-04-20T13:09:27.585Z,13.01
2023-04-20T13:11:54.459Z,12.93
2023-04-20T13:14:21.921Z,12.85
2023-04-20T13:16:48.785Z,12.81
2023-04-20T13:19:15.725Z,12.76
2023-04-20T13:21:42.238Z,12.59
2023-04-20T13:24:09.804Z,12.44
2023-04-20T13:26:37.004Z,12.31
2023-04-20T13:29:03.619Z,12.27
2023-04-20T13:31:31.309Z,12.22
2023-04-20T13:33:57.925Z,12.16
2023-04-20T13:36:25.049Z,12.05
2023-04-20T13:38:53.405Z,12.00
2023-04-20T13:41:20.137Z,11.93
2023-04-20T13:43:46.959Z,11.84
2023-04-20T13:46:15.327Z,11.79
2023-04-20T13:48:42.320Z,11.77
2023-04-20T13:51:08.902Z,11.77
2023-04-20T13:53:35.466Z,11.79
2023-04-20T13:56:01.984Z,11.80
2023-04-20T13:58:29.071Z,11.81
2023-04-20T14:00:55.679Z,11.80
2023-04-20T14:03:22.443Z,11.80
2023-04-20T14:05:51.433Z,11.75
2023-04-20T14:08:18.318Z,11.72
2023-04-20T14:10:44.905Z,11.70
2023-04-20T14:13:11.574Z,11.70
2023-04-20T14:15:38.638Z,11.73
2023-04-20T14:18:05.177Z,11.76
2023-04-20T14:20:31.932Z,11.78
2023-04-20T14:22:58.658Z,11.76
2023-04-20T14:25:25.382Z,11.75
2023-04-20T14:27:52.052Z,11.69
2023-04-20T14:30:18.687Z,11.64
2023-04-20T14:32:58.848Z,11.61
2023-04-20T14:35:28.015Z,11.57
2023-04-20T14:37:54.951Z,11.45
2023-04-20T14:40:22.072Z,11.37
2023-04-20T14:42:49.000Z,11.26
2023-04-20T14:45:15.549Z,11.19
2023-04-20T14:47:42.074Z,11.15
2023-04-20T14:50:09.336Z,11.14
2023-04-20T14:52:36.009Z,11.10
2023-04-20T14:55:04.227Z,11.07
2023-04-20T14:57:31.584Z,11.04
2023-04-20T14:59:58.561Z,11.02
2023-04-20T15:02:25.478Z,11.00
2023-04-20T15:04:58.846Z,10.99
2023-04-20T15:07:25.681Z,10.99
2023-04-20T15:09:55.410Z,10.96
2023-04-20T15:12:22.317Z,10.94
2023-04-20T15:14:48.824Z,10.92
2023-04-20T15:17:15.821Z,10.92
2023-04-20T15:19:46.015Z,10.89
2023-04-20T15:22:13.645Z,10.89
2023-04-20T15:24:41.077Z,10.91
2023-04-20T15:27:08.346Z,10.91
2023-04-20T15:29:35.115Z,10.85
2023-04-20T15:32:01.826Z,10.81
2023-04-20T15:34:28.969Z,10.80
2023-04-20T15:36:56.357Z,10.84
2023-04-20T15:39:23.212Z,10.88
2023-04-20T15:41:49.771Z,10.94
2023-04-20T15:44:16.484Z,11.00
2023-04-20T15:46:43.232Z,11.04
2023-04-20T15:49:09.814Z,11.09
2023-04-20T15:51:39.323Z,11.12
2023-04-20T15:54:06.821Z,11.13
2023-04-20T15:56:33.379Z,11.15
2023-04-20T15:58:59.933Z,11.15
2023-04-20T16:01:29.024Z,11.17
2023-04-20T16:03:59.308Z,11.18
2023-04-20T16:06:26.552Z,11.22
2023-04-20T16:08:54.645Z,11.24
2023-04-20T16:11:21.962Z,11.27
2023-04-20T16:13:49.197Z,11.29
2023-04-20T16:16:16.553Z,11.30
2023-04-20T16:18:43.145Z,11.36
2023-04-20T16:21:09.641Z,11.57
2023-04-20T16:23:36.316Z,11.70
2023-04-20T16:26:03.076Z,11.73
2023-04-20T16:28:30.117Z,11.76
2023-04-20T16:30:57.095Z,11.85
2023-04-20T16:33:24.113Z,12.06
2023-04-20T16:35:51.556Z,12.43
2023-04-20T16:38:19.332Z,12.63
2023-04-20T16:40:45.948Z,12.72
2023-04-20T16:43:15.929Z,12.67
2023-04-20T16:45:42.856Z,12.66
2023-04-20T16:48:09.912Z,12.68
2023-04-20T16:50:38.054Z,12.64
2023-04-20T16:53:05.670Z,12.53
2023-04-20T16:55:32.689Z,12.39
2023-04-20T16:58:00.498Z,12.29
2023-04-20T17:00:33.559Z,12.17
2023-04-20T17:03:04.067Z,12.10
2023-04-20T17:05:31.008Z,12.07
2023-04-20T17:07:57.576Z,12.03
2023-04-20T17:10:24.597Z,11.99
2023-04-20T17:12:51.517Z,11.95
2023-04-20T17:15:17.987Z,11.91
2023-04-20T17:17:44.598Z,11.85
2023-04-20T17:20:11.598Z,11.79
2023-04-20T17:22:38.432Z,11.72
2023-04-20T17:25:07.402Z,11.64
2023-04-20T17:27:34.871Z,11.59
2023-04-20T17:30:02.221Z,11.52
2023-04-20T17:32:28.834Z,11.46
2023-04-20T17:34:55.588Z,11.43
2023-04-20T17:37:23.235Z,11.39
2023-04-20T17:39:50.372Z,11.38
2023-04-20T17:42:17.696Z,11.38
2023-04-20T17:44:44.385Z,11.39
2023-04-20T17:47:15.071Z,11.43
2023-04-20T17:49:41.959Z,11.43
2023-04-20T17:52:09.839Z,11.43
2023-04-20T17:54:36.679Z,11.45
2023-04-20T17:57:03.712Z,11.42
2023-04-20T17:59:31.230Z,11.42
2023-04-20T18:01:58.264Z,11.40
2023-04-20T18:04:25.473Z,11.41
2023-04-20T18:06:52.809Z,11.42
2023-04-20T18:09:19.390Z,11.40
2023-04-20T18:11:45.962Z,11.34
2023-04-20T18:14:12.482Z,11.24
2023-04-20T18:16:39.352Z,11.12
2023-04-20T18:19:06.005Z,11.05
2023-04-20T18:21:34.871Z,11.00
2023-04-20T18:24:02.026Z,10.96
2023-04-20T18:26:28.845Z,10.91
2023-04-20T18:28:55.325Z,10.85
2023-04-20T18:31:22.082Z,10.79
2023-04-20T18:33:48.692Z,10.73
2023-04-20T18:36:18.632Z,10.66
2023-04-20T18:38:45.138Z,10.60
2023-04-20T18:41:12.006Z,10.53
2023-04-20T18:43:39.022Z,10.45
2023-04-20T18:46:06.476Z,10.39
2023-04-20T18:48:33.352Z,10.33
2023-04-20T18:51:02.017Z,10.30
2023-04-20T18:53:29.701Z,10.25
2023-04-20T18:55:59.203Z,10.22
2023-04-20T18:58:25.794Z,10.17
2023-04-20T19:00:52.489Z,10.13
2023-04-20T19:03:19.903Z,10.08
2023-04-20T19:05:46.801Z,10.04
2023-04-20T19:08:13.566Z,10.01
2023-04-20T19:10:40.234Z,9.97
2023-04-20T19:13:06.767Z,9.95
2023-04-20T19:15:34.316Z,9.91
2023-04-20T19:18:01.335Z,9.87
2023-04-20T19:20:27.943Z,9.84
2023-04-20T19:22:54.592Z,9.79
2023-04-20T19:25:21.245Z,9.74
2023-04-20T19:27:48.018Z,9.72
2023-04-20T19:30:14.955Z,9.72
2023-04-20T19:32:41.590Z,9.71
2023-04-20T19:35:08.449Z,9.69
2023-04-20T19:37:35.075Z,9.63
2023-04-20T19:40:01.749Z,9.59
2023-04-20T19:42:28.355Z,9.52
2023-04-20T19:44:54.921Z,9.48
2023-04-20T19:47:21.528Z,9.44
2023-04-20T19:49:48.758Z,9.40
2023-04-20T19:52:15.877Z,9.37
2023-04-20T19:54:42.546Z,9.35
2023-04-20T19:57:09.799Z,9.33
2023-04-20T19:59:38.415Z,9.34
2023-04-20T20:02:05.622Z,9.32
2023-04-20T20:04:32.960Z,9.28
2023-04-20T20:06:59.582Z,9.26
2023-04-20T20:09:26.346Z,9.23
2023-04-20T20:11:52.941Z,9.22
2023-04-20T20:14:19.641Z,9.19
2023-04-20T20:16:46.366Z,9.13
2023-04-20T20:19:12.897Z,9.08
2023-04-20T20:21:39.350Z,9.02
2023-04-20T20:24:06.019Z,8.97
2023-04-20T20:26:32.675Z,8.96
2023-04-20T20:28:59.502Z,9.02
2023-04-20T20:31:26.206Z,9.06
2023-04-20T20:33:53.268Z,9.07
2023-04-20T20:36:19.820Z,9.09
2023-04-20T20:38:47.523Z,9.13
2023-04-20T20:41:14.290Z,9.16
2023-04-20T20:43:42.703Z,9.17
2023-04-20T20:46:09.614Z,9.12
2023-04-20T20:48:36.510Z,9.07
2023-04-20T20:51:03.318Z,9.00
2023-04-20T20:53:30.171Z,8.91
2023-04-20T20:55:56.721Z,8.85
2023-04-20T20:58:23.281Z,8.77
2023-04-20T21:00:50.259Z,8.76
2023-04-20T21:03:17.047Z,8.77
2023-04-20T21:05:43.672Z,8.75
2023-04-20T21:08:11.470Z,8.71
2023-04-20T21:10:38.165Z,8.64
2023-04-20T21:13:05.801Z,8.58
2023-04-20T21:15:33.282Z,8.53
2023-04-20T21:18:00.028Z,8.49
2023-04-20T21:20:26.827Z,8.44
2023-04-20T21:22:53.623Z,8.38
2023-04-20T21:25:20.478Z,8.31
2023-04-20T21:27:47.890Z,8.27
2023-04-20T21:30:14.579Z,8.20
2023-04-20T21:32:41.479Z,8.14
2023-04-20T21:35:08.831Z,8.12
2023-04-20T21:37:36.010Z,8.09
2023-04-20T21:40:02.551Z,8.10
2023-04-20T21:42:29.727Z,8.10
2023-04-20T21:44:56.630Z,8.09
2023-04-20T21:47:23.608Z,8.06
2023-04-20T21:49:50.322Z,8.06
2023-04-20T21:52:17.100Z,8.07
2023-04-20T21:54:43.904Z,8.05
2023-04-20T21:57:10.787Z,8.04
2023-04-20T21:59:37.255Z,8.04
2023-04-20T22:02:04.049Z,8.05
2023-04-20T22:04:32.105Z,8.06
2023-04-20T22:07:00.692Z,8.06
2023-04-20T22:09:27.632Z,8.04
2023-04-20T22:11:54.429Z,8.02
2023-04-20T22:14:21.514Z,8.01
2023-04-20T22:16:48.052Z,7.98
2023-04-20T22:19:14.902Z,7.98
2023-04-20T22:21:43.255Z,7.97
2023-04-20T22:24:09.905Z,7.96
2023-04-20T22:26:36.765Z,7.97
2023-04-20T22:29:03.543Z,7.97
2023-04-20T22:31:30.413Z,8.00
2023-04-20T22:33:57.310Z,8.06
2023-04-20T22:36:24.451Z,8.10
2023-04-20T22:38:51.662Z,8.11
2023-04-20T22:41:18.365Z,8.10
2023-04-20T22:43:46.997Z,8.11
2023-04-20T22:46:14.026Z,8.09
2023-04-20T22:48:41.863Z,8.05
2023-04-20T22:51:08.666Z,8.02
2023-04-20T22:53:35.210Z,8.00
2023-04-20T22:56:08.337Z,7.98
2023-04-20T22:58:35.034Z,7.97
2023-04-20T23:01:02.594Z,7.94
2023-04-20T23:03:29.366Z,7.97
2023-04-20T23:05:57.528Z,7.96
2023-04-20T23:08:25.735Z,7.97
2023-04-20T23:10:55.988Z,8.01
2023-04-20T23:13:24.677Z,8.05
2023-04-20T23:15:51.552Z,8.07
2023-04-20T23:18:18.344Z,8.09
2023-04-20T23:20:44.884Z,8.09
2023-04-20T23:23:11.676Z,8.09
2023-04-20T23:25:38.368Z,8.08
2023-04-20T23:28:05.065Z,8.09
2023-04-20T23:30:31.539Z,8.09
2023-04-20T23:32:58.127Z,8.09
2023-04-20T23:35:24.888Z,8.09
2023-04-20T23:37:51.540Z,8.09
2023-04-20T23:40:18.429Z,8.09
2023-04-20T23:42:44.949Z,8.10
2023-04-20T23:45:12.021Z,8.08
2023-04-20T23:47:39.434Z,8.08
2023-04-20T23:50:06.783Z,8.08
2023-04-20T23:52:33.366Z,8.08
2023-04-20T23:54:59.895Z,8.07
2023-04-20T23:57:26.566Z,8.07
2023-04-20T23:59:53.968Z,8.06
